Valerio, Brazil
Current Conditions -  °F | °C
As of 9:00 PM on Saturday 20 Dec 2014 (Local Time) from SARI Reporting Station
Clear Clear  
Wind Chill: 84°   Ceiling: Unl
Heat Index: 92°   Visibility: 6mi
Dew Point: 75°   Wind: 7mph
Humidity: 74%   Direction: 20°NNE
Pressure: 29.59"   Gusts: NA
Location:  25.77°S, 53.66°W
Report Text: SARI 202300Z 02006KT CAVOK 29/24 Q1002
Loading
Personal Weather Stations






























Interactive Weather Map New forecast layout! Learn more

10-Day Weather Forecast

Advertisements
Track Severe Weather on mobile